Time;durP1;ratioP1;P1;durP2;ratioP2;P2;SDS_P1;SDS_P2;PMS_P1;PMS_P2;Temp;Humidity;BMP_temperature;BMP_pressure;BME280_temperature;BME280_humidity;BME280_pressure;Samples;Min_cycle;Max_cycle;Signal;HPM_P1;HPM_P2
2022/02/14 00:01:31;;;;;;;9.93;6.03;;;;;;;2.39;49.64;97567.47;10044856;29;20049;-84
2022/02/14 00:06:52;;;;;;;10.32;6.65;;;;;;;2.35;49.95;97556.09;10045465;29;20054;-86
2022/02/14 00:12:14;;;;;;;8.32;6.18;;;;;;;2.33;49.05;97552.41;10032714;29;20037;-84
2022/02/14 00:17:36;;;;;;;10.98;6.35;;;;;;;2.26;49.86;97556.59;10032712;29;20037;-84
2022/02/14 00:22:58;;;;;;;10.05;6.32;;;;;;;2.06;50.86;97536.13;10044740;29;20038;-84
2022/02/14 00:28:23;;;;;;;9.68;6.35;;;;;;;2.01;50.28;97534.25;10044970;29;20064;-84
2022/02/14 00:33:44;;;;;;;10.95;6.60;;;;;;;1.92;50.58;97524.47;10045608;29;20037;-83
2022/02/14 00:39:06;;;;;;;11.40;6.78;;;;;;;1.86;52.22;97507.38;10044500;29;20034;-84
2022/02/14 00:44:27;;;;;;;10.18;6.07;;;;;;;1.71;52.17;97507.25;10044757;29;20034;-85
2022/02/14 00:49:49;;;;;;;10.05;6.68;;;;;;;1.55;52.97;97491.94;10031225;29;20038;-84
2022/02/14 00:55:12;;;;;;;9.35;6.35;;;;;;;1.46;53.58;97503.44;10068969;29;20066;-84
2022/02/14 01:00:34;;;;;;;13.93;6.80;;;;;;;1.31;53.84;97504.78;10030999;29;20038;-83
2022/02/14 01:05:55;;;;;;;10.23;6.25;;;;;;;1.12;54.74;97507.00;10043620;29;20033;-85
2022/02/14 01:11:17;;;;;;;11.13;6.60;;;;;;;1.03;54.15;97502.72;10034963;29;20054;-84
2022/02/14 01:16:39;;;;;;;11.00;6.47;;;;;;;1.05;54.54;97508.41;10050162;29;20036;-83
2022/02/14 01:22:00;;;;;;;11.25;6.72;;;;;;;1.05;54.15;97496.66;10037543;29;20101;-84
2022/02/14 01:27:22;;;;;;;10.27;6.07;;;;;;;0.94;54.89;97500.44;10049938;29;20037;-84
2022/02/14 01:32:44;;;;;;;11.95;6.60;;;;;;;0.88;55.56;97490.84;10036873;29;20034;-84
2022/02/14 01:38:06;;;;;;;11.90;6.90;;;;;;;0.84;55.49;97496.66;10048913;29;20049;-85
2022/02/14 01:43:27;;;;;;;9.60;6.18;;;;;;;0.80;56.09;97490.78;10049195;29;20037;-85
2022/02/14 01:48:49;;;;;;;13.73;7.18;;;;;;;0.78;55.62;97487.81;10060941;29;20073;-85
2022/02/14 01:54:11;;;;;;;12.35;6.53;;;;;;;0.77;55.23;97476.09;10035738;29;20049;-84
2022/02/14 01:59:33;;;;;;;10.48;6.50;;;;;;;0.80;55.79;97464.03;10048352;29;20034;-85
2022/02/14 02:04:54;;;;;;;9.73;6.32;;;;;;;0.86;55.75;97472.88;10047501;29;20033;-82
2022/02/14 02:10:16;;;;;;;8.85;6.10;;;;;;;0.79;55.88;97457.06;10010110;29;20054;-84
2022/02/14 02:15:38;;;;;;;10.82;6.85;;;;;;;0.68;56.74;97454.59;10047762;29;20041;-84
2022/02/14 02:21:00;;;;;;;12.55;6.70;;;;;;;0.55;56.89;97451.88;10059486;29;20030;-85
2022/02/14 02:26:22;;;;;;;9.90;6.18;;;;;;;0.51;56.46;97445.97;10034198;29;20026;-84
2022/02/14 02:31:44;;;;;;;13.68;7.07;;;;;;;0.49;56.68;97440.28;10034481;29;20057;-84
2022/02/14 02:37:07;;;;;;;11.20;7.07;;;;;;;0.34;57.43;97434.63;10058788;29;20033;-85
2022/02/14 02:42:29;;;;;;;12.73;7.20;;;;;;;0.14;57.10;97427.81;10033222;29;20042;-85
2022/02/14 02:47:51;;;;;;;11.77;7.47;;;;;;;0.10;57.70;97425.41;10046230;29;20034;-85
2022/02/14 02:53:13;;;;;;;12.05;7.55;;;;;;;0.00;58.33;97429.88;10032877;29;20050;-84
2022/02/14 02:58:37;;;;;;;12.52;7.55;;;;;;;-0.09;58.76;97427.56;10045788;29;20093;-83
2022/02/14 03:04:03;;;;;;;13.80;6.93;;;;;;;-0.15;58.54;97427.66;10032174;29;20050;-84
2022/02/14 03:09:25;;;;;;;11.75;6.68;;;;;;;-0.19;58.87;97429.25;10044707;29;20061;-84
2022/02/14 03:14:47;;;;;;;12.55;7.22;;;;;;;-0.31;60.33;97418.50;10044348;29;20053;-84
2022/02/14 03:20:10;;;;;;;10.43;7.40;;;;;;;-0.24;59.36;97416.41;10031823;29;20054;-84
2022/02/14 03:25:32;;;;;;;11.52;7.30;;;;;;;-0.18;59.21;97430.75;10044327;29;20050;-84
2022/02/14 03:30:54;;;;;;;13.00;7.35;;;;;;;-0.15;59.71;97419.44;10030270;29;20060;-85
2022/02/14 03:36:17;;;;;;;12.43;7.18;;;;;;;-0.21;59.60;97418.06;10043257;29;20094;-84
2022/02/14 03:41:38;;;;;;;11.70;7.10;;;;;;;-0.25;59.30;97426.63;10056270;29;20050;-85
2022/02/14 03:47:01;;;;;;;12.02;7.43;;;;;;;-0.24;59.89;97425.38;10030735;29;20042;-84
2022/02/14 03:52:23;;;;;;;11.35;7.63;;;;;;;-0.31;60.03;97418.50;10044156;29;20078;-85
2022/02/14 03:57:50;;;;;;;11.68;7.18;;;;;;;-0.30;59.53;97428.22;10006041;29;20062;-84
2022/02/14 04:03:12;;;;;;;11.93;6.72;;;;;;;-0.40;60.07;97418.19;10006728;29;20477;-84
2022/02/14 04:08:34;;;;;;;11.90;7.70;;;;;;;-0.45;60.32;97424.53;9980748;29;20110;-84
2022/02/14 04:13:56;;;;;;;12.00;7.68;;;;;;;-0.49;60.44;97419.34;10004422;29;20109;-86
2022/02/14 04:19:20;;;;;;;12.47;7.30;;;;;;;-0.49;60.90;97422.09;9992889;29;20034;-85
2022/02/14 04:24:42;;;;;;;14.57;7.70;;;;;;;-0.53;60.39;97410.00;9979297;29;20042;-84
2022/02/14 04:30:05;;;;;;;13.82;7.93;;;;;;;-0.55;61.17;97426.97;10004641;29;20050;-84
2022/02/14 04:35:27;;;;;;;12.40;7.75;;;;;;;-0.63;60.48;97404.19;9961412;29;20054;-79
2022/02/14 04:40:48;;;;;;;11.70;7.45;;;;;;;-0.60;61.15;97408.59;9944894;29;20049;-78
2022/02/14 04:46:08;;;;;;;13.55;7.65;;;;;;;-0.56;61.25;97400.81;9947965;29;20047;-80
2022/02/14 04:51:29;;;;;;;11.15;7.38;;;;;;;-0.61;61.43;97401.66;9967241;29;20047;-80
2022/02/14 04:56:50;;;;;;;9.95;6.65;;;;;;;-0.53;61.03;97399.75;9998242;29;20054;-80
2022/02/14 05:02:10;;;;;;;12.05;7.47;;;;;;;-0.54;60.96;97405.78;10006172;29;20405;-79
2022/02/14 05:07:33;;;;;;;12.80;7.35;;;;;;;-0.59;61.19;97404.59;10023844;29;20053;-81
2022/02/14 05:12:54;;;;;;;13.40;7.53;;;;;;;-0.59;61.25;97404.59;10022253;29;20046;-76
2022/02/14 05:18:15;;;;;;;12.20;7.32;;;;;;;-0.61;60.99;97404.41;10000441;29;20046;-76
2022/02/14 05:23:35;;;;;;;12.75;8.00;;;;;;;-0.57;61.58;97402.09;9988017;29;20466;-75
2022/02/14 05:28:56;;;;;;;12.20;8.07;;;;;;;-0.60;61.35;97395.63;9974984;29;20054;-76
2022/02/14 05:34:17;;;;;;;11.88;7.88;;;;;;;-0.65;61.55;97401.25;9974693;29;20050;-76
2022/02/14 05:39:37;;;;;;;13.23;7.93;;;;;;;-0.78;62.21;97398.47;10009954;29;20042;-77
2022/02/14 05:44:58;;;;;;;13.98;7.68;;;;;;;-0.81;62.16;97396.81;10011426;29;20484;-78
2022/02/14 05:50:19;;;;;;;13.05;8.65;;;;;;;-0.85;61.59;97394.38;10010620;29;20122;-76
2022/02/14 05:55:40;;;;;;;11.13;7.35;;;;;;;-0.79;61.92;97384.03;9987894;29;20057;-77
2022/02/14 06:01:01;;;;;;;14.20;8.27;;;;;;;-0.79;62.37;97397.00;9973668;29;20042;-77
2022/02/14 06:06:22;;;;;;;14.88;7.90;;;;;;;-0.84;61.93;97398.59;9981205;29;20061;-77
2022/02/14 06:11:43;;;;;;;13.95;8.48;;;;;;;-0.82;62.18;97389.84;9967427;29;20438;-77
2022/02/14 06:17:04;;;;;;;14.48;8.60;;;;;;;-0.87;62.23;97381.22;9964148;29;20050;-76
2022/02/14 06:22:25;;;;;;;12.75;8.15;;;;;;;-0.88;62.70;97378.97;9959135;29;20042;-78
2022/02/14 06:27:46;;;;;;;13.88;8.40;;;;;;;-0.60;63.07;97383.94;9950948;29;20463;-77
2022/02/14 06:33:07;;;;;;;16.30;8.48;;;;;;;0.76;60.95;97386.69;9947317;29;20051;-77
2022/02/14 06:38:27;;;;;;;13.63;8.07;;;;;;;1.60;60.74;97384.50;9948044;29;20055;-77
2022/02/14 06:43:49;;;;;;;12.70;8.70;;;;;;;3.86;58.97;97412.59;9953460;29;20110;-81
2022/02/14 06:49:10;;;;;;;13.25;8.27;;;;;;;6.31;53.68;97398.25;9948582;29;20042;-78
2022/02/14 06:54:32;;;;;;;13.93;8.70;;;;;;;8.09;49.86;97396.19;9969037;29;20087;-79
2022/02/14 06:59:52;;;;;;;12.98;8.80;;;;;;;8.87;41.20;97382.84;10008030;29;20098;-79
2022/02/14 07:05:17;;;;;;;12.38;8.45;;;;;;;9.37;44.50;97388.31;10007779;29;20057;-79
2022/02/14 07:10:38;;;;;;;12.45;9.07;;;;;;;10.59;37.14;97401.69;10016974;29;20038;-83
2022/02/14 07:15:59;;;;;;;14.07;9.13;;;;;;;11.99;38.63;97416.94;10004830;29;20050;-79
2022/02/14 07:21:20;;;;;;;14.70;9.50;;;;;;;13.02;36.97;97402.22;10009441;29;20053;-78
2022/02/14 07:26:40;;;;;;;14.82;9.38;;;;;;;13.45;32.08;97408.00;10009566;29;20050;-77
2022/02/14 07:32:01;;;;;;;11.68;8.35;;;;;;;14.60;34.08;97412.19;10027154;29;20046;-83
2022/02/14 07:37:23;;;;;;;14.77;9.23;;;;;;;15.59;29.20;97412.34;10043705;29;20073;-81
2022/02/14 07:42:45;;;;;;;10.93;8.18;;;;;;;15.97;28.33;97404.09;10049022;29;20049;-78
2022/02/14 07:48:06;;;;;;;11.55;7.28;;;;;;;16.70;31.03;97395.72;9999891;29;20057;-80
2022/02/14 07:53:28;;;;;;;11.10;8.15;;;;;;;17.13;25.74;97389.56;10005035;29;20061;-82
2022/02/14 07:58:49;;;;;;;11.27;8.07;;;;;;;17.20;26.28;97387.69;9958735;29;20057;-83
2022/02/14 08:04:10;;;;;;;9.18;7.80;;;;;;;17.66;23.99;97377.31;9955045;29;20398;-84
2022/02/14 08:09:32;;;;;;;12.40;8.38;;;;;;;18.04;23.62;97377.16;9977471;29;20425;-84
2022/02/14 08:14:53;;;;;;;10.52;8.00;;;;;;;15.45;23.96;97375.19;9979802;29;20053;-85
2022/02/14 08:20:14;;;;;;;9.32;7.72;;;;;;;15.05;25.10;97374.84;9972646;29;20054;-85
2022/02/14 08:25:35;;;;;;;9.65;7.57;;;;;;;19.63;20.76;97374.09;9981555;29;20506;-84
2022/02/14 08:30:56;;;;;;;10.38;7.75;;;;;;;21.91;19.19;97367.72;9956085;29;20046;-84
2022/02/14 08:36:18;;;;;;;8.95;7.03;;;;;;;23.93;15.47;97384.63;9968571;29;20049;-82
2022/02/14 08:41:39;;;;;;;9.32;7.13;;;;;;;23.99;14.87;97373.28;9956382;29;20397;-83
2022/02/14 08:46:59;;;;;;;10.48;6.80;;;;;;;24.57;15.61;97377.31;9980981;29;20466;-83
2022/02/14 08:52:20;;;;;;;10.45;6.35;;;;;;;25.27;15.06;97382.69;9968285;29;20046;-82
2022/02/14 08:57:42;;;;;;;9.15;6.32;;;;;;;26.62;13.56;97368.59;10002577;29;20057;-85
2022/02/14 09:03:03;;;;;;;11.57;6.47;;;;;;;27.03;13.40;97372.09;9993744;29;20046;-84
2022/02/14 09:08:25;;;;;;;8.93;5.75;;;;;;;26.03;13.47;97374.31;10005790;29;20056;-86
2022/02/14 09:13:46;;;;;;;9.40;6.68;;;;;;;27.39;12.46;97369.06;10006022;29;20062;-86
2022/02/14 09:19:07;;;;;;;7.47;6.05;;;;;;;27.26;11.94;97361.28;9993225;29;20053;-86
2022/02/14 09:24:29;;;;;;;9.13;7.03;;;;;;;28.16;11.43;97370.75;10004261;29;20073;-86
2022/02/14 09:29:53;;;;;;;11.13;6.55;;;;;;;28.85;11.44;97372.28;10001940;29;20128;-85
2022/02/14 09:35:26;;;;;;;8.80;6.03;;;;;;;29.47;11.03;97378.06;9999732;29;20053;-86
2022/02/14 09:40:46;;;;;;;9.73;6.47;;;;;;;28.68;10.80;97371.75;10002452;29;20046;-84
2022/02/14 09:46:07;;;;;;;8.45;6.90;;;;;;;27.49;11.35;97364.72;9999103;29;20038;-80
2022/02/14 09:51:28;;;;;;;9.63;6.70;;;;;;;28.85;10.43;97357.22;9999209;29;20046;-84
2022/02/14 09:56:49;;;;;;;8.85;7.15;;;;;;;27.85;10.80;97349.47;9998648;29;20053;-84
2022/02/14 10:02:22;;;;;;;12.18;6.80;;;;;;;28.45;10.29;97345.41;9998128;29;20472;-82
2022/02/14 10:07:46;;;;;;;;;;;;;;;26.48;11.04;97358.59;9949232;29;20501;-82
2022/02/14 10:13:07;;;;;;;10.15;6.93;;;;;;;24.75;12.65;97361.03;9984369;29;19925;-85
2022/02/14 10:18:33;;;;;;;8.40;6.47;;;;;;;23.11;13.86;97337.47;9986654;29;20102;-81
2022/02/14 10:24:14;;;;;;;11.30;6.50;;;;;;;19.84;16.57;97346.28;9998714;29;20038;-76
2022/02/14 10:29:35;;;;;;;10.52;6.53;;;;;;;18.35;18.28;97327.28;9997388;29;20046;-77
2022/02/14 10:35:03;;;;;;;8.35;6.70;;;;;;;17.44;19.65;97334.94;10004935;29;20037;-81
2022/02/14 10:40:28;;;;;;;8.40;6.80;;;;;;;16.96;20.23;97317.03;10000036;29;20042;-74
2022/02/14 10:45:53;;;;;;;9.40;7.22;;;;;;;16.55;21.33;97309.19;10009189;29;20577;-75
2022/02/14 10:51:18;;;;;;;9.55;6.72;;;;;;;16.90;21.42;97302.03;9984168;29;20505;-81
2022/02/14 10:56:40;;;;;;;10.93;7.45;;;;;;;16.56;21.49;97288.81;9996905;29;20122;-82
2022/02/14 11:02:00;;;;;;;8.65;6.93;;;;;;;16.38;21.71;97285.31;9996405;29;20101;-79
2022/02/14 11:07:21;;;;;;;8.82;7.55;;;;;;;15.65;22.54;97279.69;9983472;29;20413;-83
2022/02/14 11:12:49;;;;;;;9.80;7.20;;;;;;;15.20;22.78;97263.03;9981797;29;20049;-78
2022/02/14 11:18:20;;;;;;;11.10;8.07;;;;;;;14.46;23.00;97254.25;9980088;29;20069;-83
2022/02/14 11:23:49;;;;;;;9.77;7.70;;;;;;;13.95;23.88;97237.19;10004084;29;20053;-80
2022/02/14 11:29:10;;;;;;;10.73;8.15;;;;;;;13.88;25.03;97241.06;9993463;29;20059;-78
2022/02/14 11:34:53;;;;;;;11.82;9.15;;;;;;;13.67;25.56;97231.69;10015451;29;20057;-79
2022/02/14 11:40:29;;;;;;;12.43;9.53;;;;;;;13.51;24.93;97227.38;10025637;29;20052;-79
2022/02/14 11:46:15;;;;;;;14.88;10.05;;;;;;;12.66;26.37;97216.22;9986038;29;20062;-80
2022/02/14 11:51:37;;;;;;;14.82;9.60;;;;;;;12.56;26.49;97207.31;10000994;29;20068;-80
2022/02/14 11:57:10;;;;;;;13.70;10.07;;;;;;;11.97;27.38;97207.78;10023291;29;20517;-79
2022/02/14 12:02:30;;;;;;;13.18;10.52;;;;;;;11.64;27.60;97180.09;10021894;29;20501;-79
2022/02/14 12:07:54;;;;;;;16.77;10.88;;;;;;;11.88;28.17;97171.59;9996639;29;20054;-79
2022/02/14 12:13:19;;;;;;;15.00;10.90;;;;;;;11.91;28.57;97164.75;9988920;29;20481;-78
2022/02/14 12:24:21;;;;;;;16.75;10.82;;;;;;;12.24;28.16;97156.69;10010199;29;20050;-79
2022/02/14 12:29:42;;;;;;;14.90;10.73;;;;;;;12.31;27.94;97149.34;9996627;29;20054;-79
2022/02/14 12:35:03;;;;;;;16.48;11.05;;;;;;;12.43;28.27;97146.44;9992959;29;20046;-79
2022/02/14 12:40:23;;;;;;;15.75;10.38;;;;;;;12.47;28.13;97135.47;10008617;29;20042;-79
2022/02/14 12:45:44;;;;;;;16.25;10.02;;;;;;;12.63;27.84;97129.94;9983361;29;20058;-79
2022/02/14 12:51:26;;;;;;;12.93;9.32;;;;;;;12.77;27.41;97136.97;9997647;29;20050;-81
2022/02/14 12:56:47;;;;;;;13.70;8.85;;;;;;;12.60;27.80;97110.25;10060859;29;20058;-78
2022/02/14 13:10:57;;;;;;;11.70;7.75;;;;;;;12.51;27.92;97082.47;10029784;29;20390;-78
2022/02/14 13:16:26;;;;;;;12.75;8.15;;;;;;;12.31;27.61;97071.00;10005180;29;20099;-78
2022/02/14 13:21:51;;;;;;;10.40;6.30;;;;;;;12.27;27.20;97079.94;10015637;29;20050;-78
2022/02/14 13:27:14;;;;;;;12.70;6.63;;;;;;;12.09;27.10;97083.88;10003057;29;20053;-78
2022/02/14 13:32:36;;;;;;;10.67;6.10;;;;;;;11.80;27.30;97073.31;10003048;29;20529;-79
2022/02/14 13:38:01;;;;;;;10.13;5.85;;;;;;;11.53;27.29;97060.72;9991132;29;20389;-79
2022/02/14 13:43:50;;;;;;;8.80;6.10;;;;;;;11.71;27.55;97053.28;10000466;29;20050;-78
2022/02/14 13:49:31;;;;;;;10.55;5.55;;;;;;;11.62;27.49;97057.00;10001843;29;20050;-78
2022/02/14 13:55:22;;;;;;;10.23;6.20;;;;;;;11.56;27.70;97055.94;9975488;29;20069;-78
2022/02/14 14:00:42;;;;;;;11.73;6.63;;;;;;;11.46;27.75;97053.34;9887298;29;20095;-78
2022/02/14 14:06:35;;;;;;;10.30;6.13;;;;;;;11.30;27.92;97052.50;9910865;29;20059;-79
2022/02/14 14:12:25;;;;;;;9.10;6.10;;;;;;;11.32;28.43;97052.59;9913397;29;20055;-80
2022/02/14 14:17:46;;;;;;;11.63;6.25;;;;;;;11.05;28.38;97042.06;9927208;29;20066;-80
2022/02/14 14:23:06;;;;;;;12.00;5.25;;;;;;;11.12;28.41;97039.00;9902466;30;20144;-78
2022/02/14 14:28:27;;;;;;;9.32;5.65;;;;;;;11.12;28.75;97041.78;9927972;29;20062;-78
2022/02/14 14:33:48;;;;;;;10.52;5.15;;;;;;;10.92;28.45;97035.09;10005026;29;20049;-77
2022/02/14 14:39:08;;;;;;;7.60;4.72;;;;;;;10.89;29.06;97020.28;10002097;29;20046;-76
2022/02/14 14:44:29;;;;;;;7.80;5.38;;;;;;;10.82;29.10;97020.59;10013587;29;20454;-78
2022/02/14 14:49:50;;;;;;;9.82;6.05;;;;;;;10.61;29.36;97024.31;10000192;29;20077;-76
2022/02/14 14:55:11;;;;;;;10.35;5.45;;;;;;;10.52;29.38;97012.00;9973996;29;20386;-76
2022/02/14 15:00:31;;;;;;;11.55;5.32;;;;;;;10.46;29.59;97005.34;9986320;29;20050;-76
2022/02/14 15:05:52;;;;;;;9.98;5.63;;;;;;;10.52;30.09;97008.47;9985121;29;20050;-76
2022/02/14 15:11:13;;;;;;;9.38;5.07;;;;;;;10.49;29.83;97013.19;9996487;29;20054;-75
2022/02/14 15:16:35;;;;;;;10.85;5.15;;;;;;;10.40;30.09;97011.28;9983800;29;20050;-76
2022/02/14 15:21:56;;;;;;;9.68;5.13;;;;;;;10.33;30.19;97006.72;9996128;29;20540;-75
2022/02/14 15:27:18;;;;;;;9.27;5.50;;;;;;;10.28;30.69;97000.19;9983466;29;20050;-75
2022/02/14 15:32:38;;;;;;;10.63;6.65;;;;;;;10.19;30.80;96997.50;10009168;29;20062;-75
2022/02/14 15:37:59;;;;;;;13.02;8.05;;;;;;;10.01;31.44;97008.34;9982888;29;20093;-75
2022/02/14 15:43:20;;;;;;;18.60;8.43;;;;;;;9.77;32.22;97004.88;9995719;29;20042;-75
2022/02/14 15:48:41;;;;;;;17.30;8.43;;;;;;;9.49;32.61;96992.06;10008187;29;20110;-75
2022/02/14 15:54:02;;;;;;;16.17;8.88;;;;;;;9.32;33.76;96993.16;9984603;29;20473;-76
2022/02/14 15:59:23;;;;;;;14.60;8.95;;;;;;;9.06;34.58;96983.91;10020632;29;20105;-76
2022/02/14 16:04:45;;;;;;;14.43;8.52;;;;;;;8.82;34.57;96985.94;10008801;29;20054;-78
2022/02/14 16:10:06;;;;;;;16.48;8.52;;;;;;;8.66;35.31;96982.16;10044872;29;20118;-78
2022/02/14 16:15:31;;;;;;;13.68;8.82;;;;;;;8.46;35.60;96973.25;10009080;29;20057;-78
2022/02/14 16:20:52;;;;;;;13.27;8.75;;;;;;;8.29;35.45;96994.44;10032523;29;20050;-77
2022/02/14 16:26:14;;;;;;;13.52;8.48;;;;;;;8.16;35.92;97003.34;10048425;29;20133;-80
2022/02/14 16:31:35;;;;;;;13.50;9.02;;;;;;;8.09;36.02;97004.25;10037216;29;20045;-77
2022/02/14 16:36:57;;;;;;;16.58;8.88;;;;;;;8.02;36.53;97016.31;10045596;29;20495;-76
2022/02/14 16:42:18;;;;;;;19.75;9.15;;;;;;;7.88;36.51;97023.72;10037227;29;20041;-75
2022/02/14 16:47:39;;;;;;;16.30;9.13;;;;;;;7.66;38.45;97020.91;10026789;29;20064;-78
2022/02/14 16:53:00;;;;;;;15.75;9.30;;;;;;;7.52;38.36;97028.28;10050066;29;20400;-79
2022/02/14 16:58:21;;;;;;;12.00;8.25;;;;;;;7.45;38.00;97029.94;10027359;29;20064;-78
2022/02/14 17:03:42;;;;;;;14.60;9.00;;;;;;;7.34;38.31;97036.13;10044739;29;20136;-79
2022/02/14 17:09:02;;;;;;;17.05;9.50;;;;;;;7.23;38.42;97041.53;10031928;29;20053;-80
2022/02/14 17:14:23;;;;;;;16.52;8.93;;;;;;;7.14;39.23;97034.69;10046558;29;20520;-80
2022/02/14 17:19:44;;;;;;;17.05;9.73;;;;;;;7.06;39.48;97046.00;10039146;29;20540;-77
2022/02/14 17:25:06;;;;;;;14.68;9.75;;;;;;;6.91;39.65;97040.75;10025555;29;20045;-77
2022/02/14 17:30:27;;;;;;;15.32;9.90;;;;;;;6.82;40.76;97044.28;10037635;29;20050;-75
2022/02/14 17:35:50;;;;;;;18.02;9.82;;;;;;;6.76;40.89;97047.38;10037963;29;20109;-78
2022/02/14 17:41:12;;;;;;;15.85;9.95;;;;;;;6.65;40.84;97058.31;10053763;29;20045;-80
2022/02/14 17:46:34;;;;;;;20.02;10.45;;;;;;;6.60;41.32;97060.81;10049552;29;20049;-81
2022/02/14 17:51:54;;;;;;;17.08;10.93;;;;;;;6.57;40.96;97059.22;10028516;29;20057;-78
2022/02/14 17:57:16;;;;;;;19.00;12.55;;;;;;;6.52;41.63;97051.19;10057269;29;20113;-79
2022/02/14 18:02:37;;;;;;;27.58;14.48;;;;;;;6.32;41.87;97051.19;10028361;29;20049;-83
2022/02/14 18:07:58;;;;;;;26.05;14.00;;;;;;;6.30;42.17;97058.63;10045188;29;20049;-79
2022/02/14 18:13:18;;;;;;;18.80;12.73;;;;;;;6.24;42.14;97066.47;10040376;29;20049;-81
2022/02/14 18:18:39;;;;;;;19.17;11.95;;;;;;;6.20;42.90;97071.75;10038628;29;20045;-78
2022/02/14 18:24:00;;;;;;;21.80;13.18;;;;;;;6.11;42.43;97064.16;10023410;29;20042;-79
2022/02/14 18:29:21;;;;;;;20.27;13.50;;;;;;;6.08;42.93;97052.19;10064615;29;20040;-82
2022/02/14 18:34:42;;;;;;;24.50;14.00;;;;;;;5.84;43.73;97042.03;10055475;29;20053;-77
2022/02/14 18:40:05;;;;;;;18.67;11.93;;;;;;;5.74;43.66;97053.09;10041190;29;20069;-79
2022/02/14 18:45:46;;;;;;;17.48;11.65;;;;;;;5.75;43.56;97057.31;10058608;29;20033;-81
2022/02/14 18:51:08;;;;;;;19.58;12.27;;;;;;;5.89;43.52;97061.16;10037110;29;20098;-77
2022/02/14 18:56:29;;;;;;;19.63;12.35;;;;;;;5.85;43.66;97066.38;10022170;29;20081;-77
2022/02/14 19:01:51;;;;;;;20.95;13.25;;;;;;;5.72;44.92;97064.03;10034421;29;20430;-78
2022/02/14 19:07:24;;;;;;;21.42;13.02;;;;;;;5.57;44.76;97053.91;10037428;29;20102;-77
2022/02/14 19:12:45;;;;;;;18.80;11.77;;;;;;;5.43;44.72;97063.94;10045036;29;20049;-81
2022/02/14 19:18:06;;;;;;;21.08;13.02;;;;;;;5.34;45.26;97075.69;10072238;29;20062;-82
2022/02/14 19:23:28;;;;;;;17.25;12.35;;;;;;;5.20;45.42;97061.47;10081808;29;20045;-85
2022/02/14 19:28:50;;;;;;;18.27;12.23;;;;;;;5.13;45.53;97067.88;10069709;29;20496;-80
2022/02/14 19:34:14;;;;;;;21.02;12.50;;;;;;;5.02;46.06;97065.59;10038833;29;20062;-80
2022/02/14 19:39:35;;;;;;;20.20;13.45;;;;;;;4.92;47.03;97065.53;10070990;29;20519;-80
2022/02/14 19:44:55;;;;;;;20.60;12.43;;;;;;;4.86;46.46;97062.31;10029008;29;20049;-80
2022/02/14 19:50:17;;;;;;;20.90;13.63;;;;;;;4.79;47.56;97063.88;10026213;29;20484;-80
2022/02/14 19:55:38;;;;;;;20.88;13.13;;;;;;;4.87;47.40;97069.31;10025662;29;20069;-79
2022/02/14 20:00:59;;;;;;;22.42;13.57;;;;;;;4.97;47.32;97061.81;10036342;29;20042;-81
2022/02/14 20:06:20;;;;;;;22.17;14.38;;;;;;;4.89;47.76;97066.69;10024792;29;20050;-79
2022/02/14 20:11:43;;;;;;;18.02;12.90;;;;;;;5.00;47.60;97082.78;10011951;29;20053;-80
2022/02/14 20:17:04;;;;;;;22.30;13.48;;;;;;;5.06;47.00;97094.31;10023957;29;20053;-82
2022/02/14 20:22:29;;;;;;;21.20;14.25;;;;;;;5.14;47.42;97089.44;10033762;29;20056;-79
2022/02/14 20:27:52;;;;;;;22.55;14.55;;;;;;;5.32;47.47;97105.97;10020918;29;20065;-79
2022/02/14 20:33:13;;;;;;;21.00;14.38;;;;;;;5.42;47.42;97110.25;10020144;29;20373;-79
2022/02/14 20:38:34;;;;;;;22.38;14.80;;;;;;;5.34;47.10;97112.41;10019740;29;20041;-79
2022/02/14 20:43:55;;;;;;;20.45;13.98;;;;;;;5.30;47.38;97114.84;10032031;29;20041;-79
2022/02/14 20:49:20;;;;;;;22.33;13.98;;;;;;;5.21;47.22;97112.00;10007413;29;20053;-79
2022/02/14 20:54:42;;;;;;;25.58;15.70;;;;;;;5.13;48.02;97117.66;10032266;29;20065;-78
2022/02/14 21:00:04;;;;;;;20.23;14.27;;;;;;;5.00;47.59;97109.72;10031767;29;20075;-79
2022/02/14 21:05:27;;;;;;;20.23;14.18;;;;;;;4.84;48.63;97093.31;9993773;29;20066;-79
2022/02/14 21:10:47;;;;;;;22.33;14.38;;;;;;;4.76;48.21;97094.72;9993936;29;20406;-79
2022/02/14 21:16:08;;;;;;;22.52;15.02;;;;;;;4.84;48.69;97107.16;9993496;29;20046;-79
2022/02/14 21:21:28;;;;;;;23.02;14.93;;;;;;;4.71;48.23;97101.94;9993596;29;20054;-82
2022/02/14 21:26:49;;;;;;;24.77;15.85;;;;;;;4.58;49.57;97094.00;9993669;29;20046;-79
2022/02/14 21:32:10;;;;;;;25.67;16.10;;;;;;;4.30;50.13;97084.88;9997465;29;20125;-81
2022/02/14 21:37:31;;;;;;;23.05;15.55;;;;;;;4.25;49.75;97088.63;9997276;29;20038;-81
2022/02/14 21:42:51;;;;;;;25.75;15.48;;;;;;;4.29;50.01;97088.22;9982881;29;20046;-80
2022/02/14 21:48:12;;;;;;;25.80;16.40;;;;;;;4.29;50.10;97080.66;10006148;29;20167;-81
2022/02/14 21:53:33;;;;;;;23.60;15.68;;;;;;;4.35;49.95;97094.25;9972891;29;20454;-81
2022/02/14 21:58:54;;;;;;;23.67;15.35;;;;;;;4.47;50.32;97097.25;9983878;29;20056;-82
2022/02/14 22:04:15;;;;;;;25.27;16.13;;;;;;;4.57;50.48;97089.78;9985538;29;20054;-81
2022/02/14 22:09:37;;;;;;;29.13;15.52;;;;;;;4.52;49.99;97101.78;9986701;29;20050;-82
2022/02/14 22:14:58;;;;;;;22.15;15.65;;;;;;;4.52;50.71;97090.72;10000523;29;20091;-81
2022/02/14 22:20:21;;;;;;;23.38;16.38;;;;;;;4.54;50.33;97079.88;9988282;29;20046;-79
2022/02/14 22:25:42;;;;;;;21.88;14.63;;;;;;;4.67;50.47;97101.63;9986033;29;20046;-80
2022/02/14 22:31:04;;;;;;;19.42;13.70;;;;;;;4.75;49.99;97101.56;9986637;29;20058;-79
2022/02/14 22:36:25;;;;;;;20.92;14.27;;;;;;;4.84;49.95;97101.63;9986453;29;20051;-80
2022/02/14 22:41:46;;;;;;;21.75;13.98;;;;;;;4.94;50.05;97103.72;9986465;29;20049;-80
2022/02/14 22:47:07;;;;;;;19.73;14.00;;;;;;;4.79;49.62;97113.66;9972679;29;20046;-79
2022/02/14 22:52:28;;;;;;;20.55;13.75;;;;;;;4.92;49.81;97114.59;9998091;29;20081;-79
2022/02/14 22:57:49;;;;;;;22.65;14.25;;;;;;;4.93;49.86;97116.09;9985960;29;20074;-79
2022/02/14 23:03:09;;;;;;;19.05;14.48;;;;;;;4.94;49.95;97109.97;9997607;29;20050;-79
2022/02/14 23:14:17;;;;;;;22.77;14.10;;;;;;;4.97;49.98;97110.88;10001317;29;20057;-80
2022/02/14 23:19:38;;;;;;;24.10;14.88;;;;;;;4.95;49.70;97108.66;9983976;29;20046;-79
2022/02/14 23:24:59;;;;;;;26.10;15.23;;;;;;;4.88;49.72;97107.47;9996132;29;20046;-80
2022/02/14 23:30:24;;;;;;;22.83;14.82;;;;;;;4.79;49.62;97108.13;9983816;29;20084;-80
2022/02/14 23:35:46;;;;;;;23.52;15.05;;;;;;;4.86;49.80;97118.38;9997270;29;20404;-79
2022/02/14 23:41:06;;;;;;;23.55;16.27;;;;;;;4.81;49.89;97105.50;9983014;29;20050;-79
2022/02/14 23:46:27;;;;;;;24.70;15.70;;;;;;;4.91;49.56;97115.91;9970404;29;20481;-79
2022/02/14 23:51:48;;;;;;;19.85;13.50;;;;;;;4.95;49.71;97119.00;9970002;29;20087;-80
2022/02/14 23:57:10;;;;;;;21.55;14.77;;;;;;;5.03;49.84;97127.94;9982665;29;20412;-79
